Time;durP1;ratioP1;P1;durP2;ratioP2;P2;SDS_P1;SDS_P2;PMS_P1;PMS_P2;Temp;Humidity;BMP_temperature;BMP_pressure;BME280_temperature;BME280_humidity;BME280_pressure;Samples;Min_cycle;Max_cycle;Signal;HPM_P1;HPM_P2
2023/09/26 00:00:06;;;;;;;12.23;7.47;;;24.70;55.20;;;;;;5049141;27;92762;-54
2023/09/26 00:02:35;;;;;;;14.50;7.30;;;24.70;55.20;;;;;;5067699;27;93818;-54
2023/09/26 00:05:08;;;;;;;16.23;8.73;;;24.70;55.20;;;;;;5049025;27;93026;-53
2023/09/26 00:07:37;;;;;;;14.33;8.40;;;24.70;55.20;;;;;;5051758;27;94044;-54
2023/09/26 00:10:06;;;;;;;13.10;7.87;;;24.60;55.10;;;;;;5057429;27;93680;-54
2023/09/26 00:12:35;;;;;;;15.47;7.80;;;24.60;55.10;;;;;;5057899;27;92133;-54
2023/09/26 00:15:04;;;;;;;10.80;7.00;;;24.60;55.20;;;;;;5057533;27;92118;-54
2023/09/26 00:17:32;;;;;;;11.97;7.63;;;24.60;55.20;;;;;;5057041;27;93086;-54
2023/09/26 00:20:00;;;;;;;11.40;7.53;;;24.60;55.10;;;;;;5056855;27;94036;-53
2023/09/26 00:22:28;;;;;;;12.87;8.40;;;24.60;55.10;;;;;;5057745;27;92043;-54
2023/09/26 00:24:56;;;;;;;13.23;8.30;;;24.60;55.10;;;;;;5057301;27;91341;-54
2023/09/26 00:27:24;;;;;;;11.53;7.03;;;24.60;55.20;;;;;;5057318;27;94136;-54
2023/09/26 00:29:53;;;;;;;11.80;7.30;;;24.60;55.10;;;;;;5057012;27;92762;-54
2023/09/26 00:32:21;;;;;;;15.60;8.13;;;24.60;55.10;;;;;;5056035;27;92926;-54
2023/09/26 00:34:49;;;;;;;11.03;7.27;;;24.60;55.10;;;;;;5056204;27;92225;-54
2023/09/26 00:37:17;;;;;;;14.67;8.43;;;24.60;55.10;;;;;;5056097;27;94100;-54
2023/09/26 00:39:46;;;;;;;13.40;8.00;;;24.60;55.80;;;;;;5056735;27;92893;-54
2023/09/26 00:42:14;;;;;;;12.20;8.00;;;24.60;55.10;;;;;;5056950;27;92041;-54
2023/09/26 00:44:42;;;;;;;11.43;6.23;;;24.60;55.20;;;;;;5056338;27;92103;-54
2023/09/26 00:47:11;;;;;;;12.17;6.17;;;24.60;55.20;;;;;;5057165;27;95665;-54
2023/09/26 00:49:39;;;;;;;12.37;5.90;;;24.60;55.20;;;;;;5056518;27;92847;-54
2023/09/26 00:52:07;;;;;;;6.37;4.83;;;24.60;55.10;;;;;;5053598;27;92183;-54
2023/09/26 00:54:35;;;;;;;8.90;5.17;;;24.60;55.10;;;;;;5057261;27;91995;-54
2023/09/26 00:57:03;;;;;;;7.53;4.17;;;24.60;55.10;;;;;;5055121;27;94055;-54
2023/09/26 00:59:32;;;;;;;9.07;4.90;;;24.60;55.10;;;;;;5054561;27;94727;-54
2023/09/26 01:02:00;;;;;;;9.40;5.50;;;24.60;55.10;;;;;;5056463;27;92094;-54
2023/09/26 01:04:29;;;;;;;8.13;5.23;;;24.60;55.10;;;;;;5053462;27;92996;-54
2023/09/26 01:06:57;;;;;;;6.23;4.57;;;24.60;55.10;;;;;;5055716;27;93165;-54
2023/09/26 01:09:25;;;;;;;8.33;4.43;;;24.60;55.00;;;;;;5055318;27;92778;-53
2023/09/26 01:11:53;;;;;;;6.90;4.63;;;24.60;55.00;;;;;;5053893;27;91996;-54
2023/09/26 01:14:21;;;;;;;8.57;4.53;;;24.60;55.00;;;;;;5056107;27;91300;-54
2023/09/26 01:16:54;;;;;;;6.07;4.33;;;24.60;55.70;;;;;;5060252;27;94332;-54
2023/09/26 01:19:23;;;;;;;9.00;5.27;;;24.60;55.00;;;;;;5059819;27;92568;-54
2023/09/26 01:21:52;;;;;;;8.67;5.00;;;24.60;55.00;;;;;;5058830;27;93140;-53
2023/09/26 01:24:22;;;;;;;7.97;4.83;;;24.60;55.00;;;;;;5058119;27;92073;-54
2023/09/26 01:26:50;;;;;;;8.37;5.30;;;24.50;54.90;;;;;;5057654;27;93088;-54
2023/09/26 01:29:18;;;;;;;9.43;5.27;;;24.60;55.00;;;;;;5057635;27;92604;-54
2023/09/26 01:31:46;;;;;;;7.33;5.10;;;24.60;55.00;;;;;;5059233;27;92418;-54
2023/09/26 01:34:14;;;;;;;8.37;5.27;;;24.60;55.00;;;;;;5057030;27;92201;-54
2023/09/26 01:36:42;;;;;;;9.90;6.53;;;24.60;55.00;;;;;;5058186;27;93107;-53
2023/09/26 01:39:10;;;;;;;8.67;5.77;;;24.60;55.00;;;;;;5059609;27;92628;-54
2023/09/26 01:41:41;;;;;;;9.17;5.60;;;24.50;54.90;;;;;;5058693;27;93723;-54
2023/09/26 01:44:09;;;;;;;8.67;5.80;;;24.50;55.00;;;;;;5059165;27;93577;-53
2023/09/26 01:46:37;;;;;;;7.03;4.90;;;24.50;55.00;;;;;;5058322;27;94044;-53
2023/09/26 01:49:05;;;;;;;7.30;4.80;;;24.50;55.00;;;;;;5059011;27;94044;-53
2023/09/26 01:51:33;;;;;;;11.47;5.93;;;24.50;55.00;;;;;;5058350;27;92029;-53
2023/09/26 01:54:01;;;;;;;7.13;4.47;;;24.50;55.00;;;;;;5058164;27;92060;-53
2023/09/26 01:56:31;;;;;;;9.83;5.00;;;24.50;55.00;;;;;;5057420;27;93193;-53
2023/09/26 01:59:01;;;;;;;8.37;5.83;;;24.50;55.00;;;;;;5057330;27;93835;-54
2023/09/26 02:01:29;;;;;;;7.53;3.90;;;24.50;55.00;;;;;;5057825;27;92097;-53
2023/09/26 02:03:57;;;;;;;7.07;5.40;;;24.50;55.00;;;;;;5058863;27;91366;-53
2023/09/26 02:06:25;;;;;;;9.53;5.03;;;24.50;55.00;;;;;;5057869;27;92822;-54
2023/09/26 02:08:53;;;;;;;7.30;5.07;;;24.50;55.00;;;;;;5055746;27;93820;-54
2023/09/26 02:11:21;;;;;;;7.40;4.83;;;24.40;54.90;;;;;;5057981;27;93022;-54
2023/09/26 02:13:49;;;;;;;7.17;5.10;;;24.50;55.00;;;;;;5058902;27;92119;-54
2023/09/26 02:16:19;;;;;;;6.80;4.30;;;24.50;55.00;;;;;;5058360;27;93151;-54
2023/09/26 02:18:47;;;;;;;7.80;4.57;;;24.50;55.00;;;;;;5072946;27;93892;-54
2023/09/26 02:21:18;;;;;;;7.73;5.37;;;24.50;55.00;;;;;;5080173;27;92030;-54
2023/09/26 02:23:46;;;;;;;7.63;4.07;;;24.40;54.90;;;;;;5079224;27;92089;-54
2023/09/26 02:26:18;;;;;;;7.60;4.67;;;24.50;55.10;;;;;;5079502;27;93079;-53
2023/09/26 02:28:46;;;;;;;5.93;4.13;;;24.40;55.00;;;;;;5058604;27;93656;-54
2023/09/26 02:31:16;;;;;;;7.53;3.80;;;24.40;55.00;;;;;;5059509;27;92107;-54
2023/09/26 02:33:46;;;;;;;6.23;3.90;;;24.40;55.00;;;;;;5058716;27;92004;-53
2023/09/26 02:36:14;;;;;;;5.70;3.30;;;24.40;54.90;;;;;;5058406;27;94340;-54
2023/09/26 02:38:42;;;;;;;4.97;3.00;;;24.40;54.90;;;;;;5057933;27;93737;-54
2023/09/26 02:41:10;;;;;;;6.27;3.77;;;24.40;54.90;;;;;;5058645;27;92015;-54
2023/09/26 02:43:38;;;;;;;5.73;3.07;;;24.40;54.90;;;;;;5058430;27;92088;-54
2023/09/26 02:46:06;;;;;;;4.50;3.07;;;24.40;54.90;;;;;;5058030;27;93058;-54
2023/09/26 02:48:34;;;;;;;5.07;3.17;;;24.40;54.90;;;;;;5044530;27;93011;-54
2023/09/26 02:51:06;;;;;;;4.90;2.93;;;24.40;54.80;;;;;;5052436;27;92179;-54
2023/09/26 02:53:34;;;;;;;4.07;2.87;;;24.40;55.50;;;;;;5054510;27;91947;-54
2023/09/26 02:56:02;;;;;;;4.83;2.60;;;24.40;54.80;;;;;;5054779;27;93086;-54
2023/09/26 02:58:30;;;;;;;5.97;2.87;;;24.40;54.80;;;;;;5054389;27;92733;-53
2023/09/26 03:01:00;;;;;;;3.80;2.47;;;24.40;54.80;;;;;;5054930;27;94593;-54
2023/09/26 03:03:28;;;;;;;7.97;2.93;;;24.40;54.80;;;;;;5056876;27;92116;-54
2023/09/26 03:05:57;;;;;;;6.83;3.10;;;24.40;54.80;;;;;;5068930;27;94274;-54
2023/09/26 03:08:26;;;;;;;4.23;2.60;;;24.40;54.80;;;;;;5053748;27;92797;-54
2023/09/26 03:10:59;;;;;;;7.30;2.57;;;24.40;54.80;;;;;;5063578;27;92166;-54
2023/09/26 03:13:32;;;;;;;5.53;3.23;;;24.40;54.80;;;;;;5062560;27;92078;-54
2023/09/26 03:16:00;;;;;;;3.90;2.83;;;24.40;54.70;;;;;;5069839;27;93059;-54
2023/09/26 03:18:29;;;;;;;5.40;3.47;;;24.40;54.70;;;;;;5070930;27;92765;-54
2023/09/26 03:20:57;;;;;;;4.57;3.23;;;24.40;54.80;;;;;;5047056;27;92569;-53
2023/09/26 03:23:26;;;;;;;6.17;3.00;;;24.40;54.80;;;;;;5059641;27;93311;-54
2023/09/26 03:25:54;;;;;;;7.80;3.53;;;24.40;54.80;;;;;;5052555;27;94302;-54
2023/09/26 03:28:22;;;;;;;5.57;3.50;;;24.40;54.80;;;;;;5052873;27;93668;-53
2023/09/26 03:30:50;;;;;;;10.60;3.00;;;24.40;54.80;;;;;;5055075;27;92178;-54
2023/09/26 03:33:18;;;;;;;4.00;2.90;;;24.40;54.80;;;;;;5054476;27;92155;-54
2023/09/26 03:35:46;;;;;;;5.23;3.57;;;24.40;54.80;;;;;;5055006;27;92967;-53
2023/09/26 03:38:14;;;;;;;4.87;2.33;;;24.40;54.80;;;;;;5050679;27;93786;-54
2023/09/26 03:40:44;;;;;;;4.97;3.13;;;24.40;54.80;;;;;;5052247;27;92934;-54
2023/09/26 03:43:12;;;;;;;3.77;2.60;;;24.40;54.90;;;;;;5055183;27;91565;-53
2023/09/26 03:45:40;;;;;;;4.03;3.13;;;24.40;54.90;;;;;;5054114;27;93789;-54
2023/09/26 03:48:08;;;;;;;3.53;2.77;;;24.40;54.80;;;;;;5052936;27;93507;-54
2023/09/26 03:50:36;;;;;;;6.07;3.07;;;24.40;54.90;;;;;;5052347;27;93159;-54
2023/09/26 03:53:04;;;;;;;2.40;2.13;;;24.40;54.90;;;;;;5052098;27;92288;-54
2023/09/26 03:55:32;;;;;;;5.07;3.53;;;24.40;54.90;;;;;;5055310;27;93003;-54
2023/09/26 03:58:02;;;;;;;6.33;3.03;;;24.40;54.90;;;;;;5053327;27;92828;-54
2023/09/26 04:00:30;;;;;;;4.13;2.30;;;24.40;54.90;;;;;;5053859;27;92720;-58
2023/09/26 04:03:01;;;;;;;3.97;2.67;;;24.40;55.40;;;;;;5055456;27;93363;-55
2023/09/26 04:05:29;;;;;;;5.10;3.00;;;24.40;54.90;;;;;;5053192;27;93559;-55
2023/09/26 04:07:58;;;;;;;3.57;2.23;;;24.30;54.80;;;;;;5053827;27;93274;-54
2023/09/26 04:10:26;;;;;;;6.10;2.83;;;24.30;54.80;;;;;;5052335;27;93201;-55
2023/09/26 04:12:54;;;;;;;4.27;2.97;;;24.30;54.90;;;;;;5052576;27;92193;-52
2023/09/26 04:15:24;;;;;;;6.60;3.20;;;24.40;55.00;;;;;;5057181;27;94560;-53
2023/09/26 04:17:52;;;;;;;5.73;2.97;;;24.40;55.00;;;;;;5052184;27;94667;-53
2023/09/26 04:20:20;;;;;;;4.70;2.97;;;24.40;55.00;;;;;;5054567;27;92397;-54
2023/09/26 04:23:04;;;;;;;4.87;2.60;;;24.40;55.00;;;;;;5054944;27;93020;-53
2023/09/26 04:25:34;;;;;;;4.80;2.77;;;24.40;55.10;;;;;;5052766;27;93439;-53
2023/09/26 04:28:02;;;;;;;3.33;2.83;;;24.40;55.10;;;;;;5055519;27;92745;-54
2023/09/26 04:30:36;;;;;;;6.63;3.20;;;24.40;55.10;;;;;;5055797;27;92196;-54
2023/09/26 04:33:05;;;;;;;5.43;3.87;;;24.40;55.80;;;;;;5057487;27;91362;-53
2023/09/26 04:35:33;;;;;;;5.33;2.93;;;24.50;55.20;;;;;;5057952;27;93151;-53
2023/09/26 04:38:01;;;;;;;8.03;3.07;;;24.50;55.20;;;;;;5055138;27;93802;-54
2023/09/26 04:40:29;;;;;;;4.50;2.80;;;24.50;55.80;;;;;;5053999;27;94513;-53
2023/09/26 04:43:00;;;;;;;4.03;2.73;;;24.50;55.80;;;;;;5054523;27;92161;-53
2023/09/26 04:45:31;;;;;;;5.17;2.97;;;24.50;55.30;;;;;;5056122;27;93079;-53
2023/09/26 04:48:00;;;;;;;5.23;2.90;;;24.50;55.30;;;;;;5058007;27;92740;-53
2023/09/26 04:50:28;;;;;;;4.50;2.30;;;24.50;55.30;;;;;;5057684;27;93276;-53
2023/09/26 04:52:57;;;;;;;3.03;2.10;;;24.50;55.30;;;;;;5062166;27;92087;-53
2023/09/26 04:55:26;;;;;;;3.83;2.63;;;24.50;55.30;;;;;;5057248;27;93081;-53
2023/09/26 04:57:54;;;;;;;6.77;3.50;;;24.50;55.30;;;;;;5059245;27;92955;-52
2023/09/26 05:00:22;;;;;;;4.03;2.60;;;24.60;55.50;;;;;;5060240;27;92192;-53
2023/09/26 05:02:52;;;;;;;4.27;2.83;;;24.50;55.30;;;;;;5064124;27;92143;-53
2023/09/26 05:05:20;;;;;;;5.03;2.93;;;24.60;55.50;;;;;;5058197;27;95424;-53
2023/09/26 05:07:49;;;;;;;4.20;2.60;;;24.60;55.50;;;;;;5058793;27;94732;-54
2023/09/26 05:10:18;;;;;;;5.60;2.93;;;24.60;55.50;;;;;;5060384;27;92142;-54
2023/09/26 05:12:46;;;;;;;5.17;2.77;;;24.60;55.60;;;;;;5055980;27;92163;-54
2023/09/26 05:15:15;;;;;;;4.33;2.77;;;24.60;55.60;;;;;;5058710;27;93077;-54
2023/09/26 05:17:43;;;;;;;6.30;3.43;;;24.50;55.50;;;;;;5058791;27;92761;-54
2023/09/26 05:20:13;;;;;;;4.97;2.77;;;24.50;55.50;;;;;;5059216;27;93787;-54
2023/09/26 05:22:42;;;;;;;5.33;2.97;;;24.50;55.50;;;;;;5061075;27;91436;-53
2023/09/26 05:25:10;;;;;;;10.87;3.50;;;24.60;55.60;;;;;;5058977;27;94197;-54
2023/09/26 05:27:39;;;;;;;7.70;3.23;;;24.60;55.70;;;;;;5059315;27;93245;-53
2023/09/26 05:30:09;;;;;;;3.60;2.70;;;24.60;55.70;;;;;;5057448;27;93074;-53
2023/09/26 05:32:37;;;;;;;4.77;2.40;;;24.60;55.70;;;;;;5058653;27;92095;-54
2023/09/26 05:35:07;;;;;;;5.40;2.73;;;24.60;55.70;;;;;;5058789;27;94296;-54
2023/09/26 05:37:36;;;;;;;5.20;2.90;;;24.50;55.70;;;;;;5057611;27;93520;-54
2023/09/26 05:40:06;;;;;;;3.40;2.37;;;24.60;55.80;;;;;;5055133;27;92625;-55
2023/09/26 05:42:35;;;;;;;2.60;2.00;;;24.50;55.70;;;;;;5059217;27;92132;-53
2023/09/26 05:45:03;;;;;;;7.33;2.90;;;24.50;55.70;;;;;;5058637;27;93312;-53
2023/09/26 05:47:31;;;;;;;3.10;2.23;;;24.60;55.80;;;;;;5059274;27;92714;-55
2023/09/26 05:50:00;;;;;;;5.30;2.37;;;24.60;55.90;;;;;;5058428;27;92083;-55
2023/09/26 05:52:28;;;;;;;3.23;2.03;;;24.60;55.90;;;;;;5056952;27;92070;-55
2023/09/26 05:54:58;;;;;;;3.30;1.90;;;24.60;55.90;;;;;;5057309;27;95085;-59
2023/09/26 05:57:26;;;;;;;4.07;2.47;;;24.60;55.90;;;;;;5058430;27;94918;-56
2023/09/26 05:59:54;;;;;;;4.73;2.40;;;24.60;55.90;;;;;;5058485;27;93411;-54
2023/09/26 06:02:22;;;;;;;7.47;3.07;;;24.60;55.90;;;;;;5056939;27;92182;-54
2023/09/26 06:04:51;;;;;;;5.27;2.07;;;24.60;55.90;;;;;;5057285;27;93213;-54
2023/09/26 06:07:19;;;;;;;4.27;2.70;;;24.60;55.80;;;;;;5057659;27;93865;-55
2023/09/26 06:09:48;;;;;;;4.10;2.30;;;24.60;56.40;;;;;;5058447;27;92090;-54
2023/09/26 06:12:36;;;;;;;2.93;1.97;;;24.60;55.80;;;;;;5057713;27;91336;-54
2023/09/26 06:15:06;;;;;;;4.93;2.50;;;24.60;55.70;;;;;;5055939;27;93223;-54
2023/09/26 06:17:34;;;;;;;3.17;1.90;;;24.60;55.70;;;;;;5057678;27;93811;-54
2023/09/26 06:20:02;;;;;;;4.53;2.23;;;24.60;55.70;;;;;;5055813;27;94059;-52
2023/09/26 06:22:31;;;;;;;6.07;1.77;;;24.60;56.40;;;;;;5054843;27;92476;-52
2023/09/26 06:25:00;;;;;;;2.20;1.90;;;24.60;55.70;;;;;;5058527;27;93092;-53
2023/09/26 06:27:28;;;;;;;3.13;2.37;;;24.60;55.70;;;;;;5057419;27;92245;-61
2023/09/26 06:29:58;;;;;;;2.67;2.23;;;24.60;55.70;;;;;;5058278;27;92952;-61
2023/09/26 06:32:26;;;;;;;5.57;2.03;;;24.60;55.70;;;;;;5067548;27;92656;-61
2023/09/26 06:34:58;;;;;;;2.47;1.90;;;24.60;55.60;;;;;;5055713;27;94295;-61
2023/09/26 06:37:26;;;;;;;2.43;1.67;;;24.60;55.60;;;;;;5055358;27;93866;-61
2023/09/26 06:39:58;;;;;;;3.13;2.03;;;24.60;55.60;;;;;;5056944;27;92151;-61
2023/09/26 06:42:26;;;;;;;2.57;1.87;;;24.60;55.50;;;;;;5054694;27;92145;-61
2023/09/26 06:44:54;;;;;;;2.20;1.67;;;24.60;55.50;;;;;;5055534;27;95139;-60
2023/09/26 06:47:24;;;;;;;3.07;1.80;;;24.60;55.50;;;;;;5058374;27;93700;-62
2023/09/26 06:49:52;;;;;;;3.33;1.87;;;24.60;55.50;;;;;;5057490;27;93293;-61
2023/09/26 06:52:22;;;;;;;2.60;1.90;;;24.60;55.50;;;;;;5057018;27;92387;-61
2023/09/26 06:54:50;;;;;;;3.97;2.17;;;24.60;55.50;;;;;;5056691;27;93096;-62
2023/09/26 06:57:20;;;;;;;3.60;2.27;;;24.60;55.40;;;;;;5050675;27;92825;-61
2023/09/26 06:59:49;;;;;;;3.27;1.93;;;24.60;55.40;;;;;;5054351;27;92267;-61
2023/09/26 07:02:17;;;;;;;2.43;1.80;;;24.60;55.40;;;;;;5053179;27;92490;-61
2023/09/26 07:04:52;;;;;;;2.57;1.60;;;24.60;55.30;;;;;;5041799;27;94112;-61
2023/09/26 07:07:20;;;;;;;2.63;2.00;;;24.50;55.30;;;;;;5038211;27;93322;-60
2023/09/26 07:09:48;;;;;;;2.73;1.90;;;24.60;55.30;;;;;;5040438;27;93105;-60
2023/09/26 07:12:17;;;;;;;2.17;1.67;;;24.60;55.30;;;;;;5041740;27;93446;-60
2023/09/26 07:14:45;;;;;;;2.77;1.60;;;24.60;55.30;;;;;;5040595;27;93113;-60
2023/09/26 07:17:13;;;;;;;3.00;2.03;;;24.60;55.20;;;;;;5039443;27;93809;-61
2023/09/26 07:19:42;;;;;;;3.30;1.70;;;24.60;55.20;;;;;;5035501;28;91948;-61
2023/09/26 07:22:11;;;;;;;2.73;1.53;;;24.60;55.20;;;;;;5037344;28;93310;-62
2023/09/26 07:24:39;;;;;;;3.53;2.27;;;24.60;55.20;;;;;;5042358;27;94071;-63
2023/09/26 07:27:17;;;;;;;3.07;1.77;;;24.60;55.20;;;;;;5036406;27;93969;-62
2023/09/26 07:29:46;;;;;;;4.53;1.63;;;24.60;55.20;;;;;;5035647;27;93792;-62
2023/09/26 07:32:15;;;;;;;2.70;1.80;;;24.60;55.20;;;;;;5034443;27;92243;-61
2023/09/26 07:34:43;;;;;;;2.00;1.57;;;24.50;55.10;;;;;;5035419;27;95124;-62
2023/09/26 07:37:13;;;;;;;4.00;1.93;;;24.50;55.10;;;;;;5037680;28;93643;-60
2023/09/26 07:39:43;;;;;;;2.73;1.77;;;24.50;55.10;;;;;;5037994;28;91809;-62
2023/09/26 07:42:12;;;;;;;3.17;1.87;;;24.50;55.10;;;;;;5037788;28;92140;-60
2023/09/26 07:44:40;;;;;;;3.30;2.07;;;24.50;55.10;;;;;;5033202;28;93942;-60
2023/09/26 07:47:08;;;;;;;4.83;2.07;;;24.60;55.20;;;;;;5036807;28;93855;-58
2023/09/26 07:49:37;;;;;;;2.17;1.90;;;24.60;55.10;;;;;;5036294;28;92047;-59
2023/09/26 07:52:05;;;;;;;4.07;2.53;;;24.80;55.20;;;;;;5036314;28;91351;-62
2023/09/26 07:54:35;;;;;;;3.70;2.83;;;24.90;55.20;;;;;;5036998;28;94189;-55
2023/09/26 07:57:03;;;;;;;4.03;2.20;;;25.00;55.10;;;;;;5037299;28;93830;-55
2023/09/26 07:59:31;;;;;;;2.90;2.13;;;25.10;55.10;;;;;;5037448;28;92811;-55
2023/09/26 08:01:59;;;;;;;4.63;3.03;;;25.20;55.00;;;;;;5037359;28;91949;-55
2023/09/26 08:04:27;;;;;;;5.10;3.03;;;25.30;54.90;;;;;;5046462;27;94146;-55
2023/09/26 08:06:56;;;;;;;3.27;2.73;;;25.40;54.90;;;;;;5054534;27;93903;-55
2023/09/26 08:09:24;;;;;;;4.47;3.07;;;25.60;55.00;;;;;;5055432;27;92288;-62
2023/09/26 08:11:53;;;;;;;6.70;3.40;;;25.70;54.90;;;;;;5056422;27;92176;-57
2023/09/26 08:14:21;;;;;;;5.50;3.57;;;25.70;54.80;;;;;;5057685;27;93103;-60
2023/09/26 08:16:50;;;;;;;5.00;3.53;;;;;;;;;;5059106;27;93839;-61
2023/09/26 08:19:18;;;;;;;7.80;3.73;;;25.80;58.60;;;;;;5057280;27;92080;-60
2023/09/26 08:21:46;;;;;;;5.47;3.07;;;25.80;60.20;;;;;;5057782;27;92020;-62
2023/09/26 08:24:14;;;;;;;8.73;3.60;;;25.80;60.20;;;;;;5056693;27;93677;-62
2023/09/26 08:26:42;;;;;;;3.90;3.43;;;25.90;60.50;;;;;;5057950;27;93977;-63
2023/09/26 08:29:11;;;;;;;7.10;3.53;;;25.90;60.50;;;;;;5067441;27;92190;-59
2023/09/26 08:31:39;;;;;;;4.83;3.10;;;25.90;60.60;;;;;;5069834;27;93913;-62
2023/09/26 08:34:08;;;;;;;6.50;3.67;;;25.90;60.50;;;;;;5060994;27;94205;-54
2023/09/26 08:36:36;;;;;;;5.77;3.57;;;25.80;60.60;;;;;;5071571;27;92696;-54
2023/09/26 08:39:05;;;;;;;3.73;3.03;;;25.80;60.70;;;;;;5064469;27;91981;-54
2023/09/26 08:41:33;;;;;;;5.17;3.07;;;25.80;60.80;;;;;;5064193;27;91523;-54
2023/09/26 08:44:01;;;;;;;5.43;2.60;;;25.70;60.80;;;;;;5061408;27;93279;-54
2023/09/26 08:46:31;;;;;;;5.37;3.17;;;25.70;61.00;;;;;;5063276;27;92728;-54
2023/09/26 08:48:58;;;;;;;3.43;2.93;;;25.60;60.90;;;;;;5061300;27;93016;-54
2023/09/26 08:51:27;;;;;;;6.13;2.70;;;25.60;61.00;;;;;;5062055;27;92096;-54
2023/09/26 08:53:55;;;;;;;5.90;2.93;;;25.50;60.90;;;;;;5063017;27;93138;-54
2023/09/26 08:56:23;;;;;;;5.00;2.70;;;25.50;61.10;;;;;;5063498;27;92691;-54
2023/09/26 08:58:51;;;;;;;3.07;2.30;;;25.50;61.10;;;;;;5063407;27;92125;-54
2023/09/26 09:01:20;;;;;;;4.33;2.43;;;25.40;61.10;;;;;;5060877;27;92154;-54
2023/09/26 09:03:49;;;;;;;4.90;2.43;;;25.40;61.20;;;;;;5062611;27;93100;-54
2023/09/26 09:06:17;;;;;;;5.63;3.30;;;25.30;61.10;;;;;;5060609;27;93987;-53
2023/09/26 09:08:46;;;;;;;4.30;2.63;;;25.30;61.20;;;;;;5062447;27;92067;-54
2023/09/26 09:11:14;;;;;;;3.70;2.57;;;25.30;61.10;;;;;;5061430;27;92269;-54
2023/09/26 09:13:42;;;;;;;6.07;3.30;;;25.30;61.20;;;;;;5061783;27;93520;-54
2023/09/26 09:16:11;;;;;;;4.63;2.70;;;25.30;61.10;;;;;;5061079;27;94962;-53
2023/09/26 09:18:41;;;;;;;3.87;2.43;;;25.30;61.20;;;;;;5062519;27;92152;-54
2023/09/26 09:21:25;;;;;;;2.93;2.23;;;25.30;61.10;;;;;;5058041;27;92456;-54
2023/09/26 09:23:54;;;;;;;3.53;2.00;;;25.20;61.20;;;;;;5061771;27;92821;-54
2023/09/26 09:26:22;;;;;;;2.80;2.33;;;25.20;61.10;;;;;;5059492;27;92728;-54
2023/09/26 09:28:52;;;;;;;4.93;2.77;;;25.20;61.30;;;;;;5058324;27;93435;-54
2023/09/26 09:31:20;;;;;;;5.30;2.20;;;25.20;61.20;;;;;;5058504;27;91428;-54
2023/09/26 09:33:52;;;;;;;4.73;3.27;;;25.10;61.10;;;;;;5059961;27;94114;-54
2023/09/26 09:36:20;;;;;;;2.80;2.37;;;25.10;61.00;;;;;;5060946;27;92773;-54
2023/09/26 09:38:50;;;;;;;3.90;2.13;;;25.20;61.10;;;;;;5059101;27;93097;-54
2023/09/26 09:41:19;;;;;;;2.57;2.37;;;25.20;61.20;;;;;;5055131;27;92155;-54
2023/09/26 09:43:47;;;;;;;2.33;2.13;;;25.20;61.10;;;;;;5057564;27;93093;-53
2023/09/26 09:46:17;;;;;;;3.93;2.47;;;25.10;61.00;;;;;;5057023;27;92105;-53
2023/09/26 09:48:46;;;;;;;4.53;2.47;;;25.20;61.00;;;;;;5057063;27;92531;-54
2023/09/26 09:51:15;;;;;;;5.43;2.10;;;25.10;61.00;;;;;;5058182;27;92101;-53
2023/09/26 09:53:45;;;;;;;4.30;2.43;;;25.20;61.00;;;;;;5059962;27;93078;-53
2023/09/26 09:56:18;;;;;;;4.07;2.40;;;25.10;60.90;;;;;;5060742;27;93137;-53
2023/09/26 09:58:50;;;;;;;3.10;2.00;;;25.20;61.90;;;;;;5060158;27;91957;-54
2023/09/26 10:01:20;;;;;;;2.47;1.80;;;25.20;60.90;;;;;;5059247;27;92081;-54
2023/09/26 10:03:50;;;;;;;5.00;2.70;;;25.20;60.90;;;;;;5057241;27;94642;-53
2023/09/26 10:06:21;;;;;;;4.83;1.90;;;25.20;61.80;;;;;;5055768;27;93785;-53
2023/09/26 10:08:49;;;;;;;3.10;2.50;;;25.10;61.00;;;;;;5048858;27;92648;-54
2023/09/26 10:11:19;;;;;;;3.23;2.40;;;25.20;60.90;;;;;;5058584;27;92095;-53
2023/09/26 10:13:47;;;;;;;3.90;2.60;;;25.20;61.00;;;;;;5058265;27;93144;-53
2023/09/26 10:16:17;;;;;;;4.20;2.23;;;25.20;60.90;;;;;;5058565;27;92594;-53
2023/09/26 10:18:46;;;;;;;3.53;2.10;;;25.20;60.90;;;;;;5055880;27;91997;-53
2023/09/26 10:21:22;;;;;;;3.33;2.90;;;25.20;61.00;;;;;;5058629;27;91449;-54
2023/09/26 10:24:29;;;;;;;5.47;2.23;;;25.10;60.90;;;;;;5055710;27;93182;-53
2023/09/26 10:27:06;;;;;;;3.43;2.20;;;25.10;61.00;;;;;;5058299;27;92908;-53
2023/09/26 10:29:54;;;;;;;4.77;2.97;;;25.20;61.00;;;;;;5057041;27;93051;-53
2023/09/26 10:32:23;;;;;;;6.23;2.63;;;25.10;60.90;;;;;;5057774;27;92134;-53
2023/09/26 10:34:51;;;;;;;6.37;2.70;;;25.00;61.00;;;;;;5057898;27;94138;-53
2023/09/26 10:37:21;;;;;;;4.00;3.07;;;25.20;61.00;;;;;;5057497;27;92711;-54
2023/09/26 10:39:49;;;;;;;4.83;2.73;;;25.20;61.00;;;;;;5055528;27;92206;-54
2023/09/26 10:42:20;;;;;;;3.60;2.60;;;25.20;61.00;;;;;;5058307;27;92048;-54
2023/09/26 10:44:52;;;;;;;4.20;2.13;;;25.20;61.00;;;;;;5057818;27;91966;-53
2023/09/26 10:47:22;;;;;;;3.43;2.40;;;25.20;60.90;;;;;;5054865;27;93093;-54
2023/09/26 10:49:50;;;;;;;8.77;2.83;;;25.20;60.90;;;;;;5057569;27;92203;-53
2023/09/26 10:52:19;;;;;;;5.97;3.20;;;25.20;60.90;;;;;;5058193;27;92158;-54
2023/09/26 10:54:47;;;;;;;6.23;3.00;;;25.20;60.90;;;;;;5057658;27;94109;-54
2023/09/26 10:57:20;;;;;;;3.13;2.30;;;25.20;60.90;;;;;;5057928;27;93694;-54
2023/09/26 10:59:49;;;;;;;3.03;2.50;;;25.20;60.90;;;;;;5058178;27;92107;-54
2023/09/26 11:02:17;;;;;;;2.70;1.90;;;25.20;60.70;;;;;;5057733;27;93030;-53
2023/09/26 11:04:45;;;;;;;3.87;2.30;;;25.20;60.70;;;;;;5057697;27;93106;-53
2023/09/26 11:07:14;;;;;;;3.90;2.50;;;25.20;60.70;;;;;;5057757;27;92962;-52
2023/09/26 11:09:44;;;;;;;5.20;2.40;;;25.20;60.70;;;;;;5055473;27;91974;-53
2023/09/26 11:12:13;;;;;;;5.13;2.90;;;25.20;60.70;;;;;;5057686;27;91428;-53
2023/09/26 11:14:42;;;;;;;4.07;2.43;;;25.30;60.70;;;;;;5055484;27;92967;-52
2023/09/26 11:17:10;;;;;;;1.67;1.57;;;25.30;61.60;;;;;;5057128;27;93029;-53
2023/09/26 11:19:38;;;;;;;5.13;2.40;;;25.30;60.60;;;;;;5057759;27;92991;-53
2023/09/26 11:22:06;;;;;;;5.23;2.50;;;25.30;60.60;;;;;;5057525;27;92135;-53
2023/09/26 11:24:35;;;;;;;4.93;3.23;;;25.30;60.60;;;;;;5057820;27;94292;-53
2023/09/26 11:27:04;;;;;;;6.27;2.73;;;25.30;60.50;;;;;;5057448;27;93083;-53
2023/09/26 11:29:34;;;;;;;8.10;3.27;;;25.40;60.60;;;;;;5058591;27;92029;-53
2023/09/26 11:32:04;;;;;;;4.73;2.83;;;25.30;60.40;;;;;;5057861;27;92086;-53
2023/09/26 11:34:34;;;;;;;7.57;2.87;;;25.40;60.60;;;;;;5058038;27;95109;-53
2023/09/26 11:37:04;;;;;;;5.33;3.20;;;25.30;60.50;;;;;;5058335;27;94114;-53
2023/09/26 11:39:32;;;;;;;5.20;2.73;;;25.30;60.50;;;;;;5058057;27;92817;-53
2023/09/26 11:42:06;;;;;;;2.90;2.30;;;25.30;60.50;;;;;;5058723;27;92072;-53
2023/09/26 11:44:35;;;;;;;3.60;2.53;;;25.30;60.60;;;;;;5056985;27;93874;-56
2023/09/26 11:47:08;;;;;;;6.50;3.03;;;25.30;60.50;;;;;;5057376;27;93645;-54
2023/09/26 11:49:36;;;;;;;6.47;2.93;;;25.30;60.50;;;;;;5058280;27;92822;-53
2023/09/26 11:52:05;;;;;;;6.30;2.93;;;25.30;60.60;;;;;;5056040;27;92066;-53
2023/09/26 11:54:36;;;;;;;3.60;2.57;;;25.30;60.50;;;;;;5057566;27;93305;-53
2023/09/26 11:57:04;;;;;;;9.30;3.17;;;25.30;60.30;;;;;;5057529;27;94136;-53
2023/09/26 11:59:32;;;;;;;4.60;3.13;;;25.30;60.50;;;;;;5056913;27;92108;-53
2023/09/26 12:02:03;;;;;;;5.37;2.37;;;25.30;60.20;;;;;;5057132;27;91378;-53
2023/09/26 12:04:32;;;;;;;4.53;2.30;;;25.30;60.20;;;;;;5057680;27;92945;-53
2023/09/26 12:07:00;;;;;;;3.03;2.07;;;25.30;60.40;;;;;;5057917;27;93856;-53
2023/09/26 12:09:29;;;;;;;3.47;2.53;;;25.30;60.20;;;;;;5057232;27;92982;-53
2023/09/26 12:11:58;;;;;;;6.20;2.40;;;25.30;60.10;;;;;;5058050;27;92021;-53
2023/09/26 12:14:26;;;;;;;2.73;2.07;;;25.40;60.20;;;;;;5057285;27;93017;-54
2023/09/26 12:16:56;;;;;;;5.67;2.07;;;25.40;60.30;;;;;;5056465;27;92718;-54
2023/09/26 12:19:25;;;;;;;5.90;2.50;;;25.40;60.10;;;;;;5056955;27;92126;-54
2023/09/26 12:21:54;;;;;;;3.33;2.30;;;25.40;60.10;;;;;;5052215;27;92507;-53
2023/09/26 12:24:22;;;;;;;4.97;2.40;;;25.50;60.30;;;;;;5044467;27;94297;-54
2023/09/26 12:26:51;;;;;;;3.73;1.80;;;25.50;60.10;;;;;;5057873;27;93842;-55
2023/09/26 12:29:19;;;;;;;5.13;2.93;;;25.50;60.10;;;;;;5042833;27;91961;-55
2023/09/26 12:31:47;;;;;;;5.30;3.33;;;25.60;60.10;;;;;;5037191;28;92084;-57
2023/09/26 12:34:15;;;;;;;4.30;2.67;;;25.60;60.30;;;;;;5036004;28;94227;-56
2023/09/26 12:36:43;;;;;;;6.20;3.20;;;25.70;60.40;;;;;;5037823;27;94839;-56
2023/09/26 12:39:13;;;;;;;3.00;1.93;;;25.70;60.30;;;;;;5037700;28;92836;-56
2023/09/26 12:41:41;;;;;;;3.70;2.33;;;25.70;60.40;;;;;;5043238;27;92108;-55
2023/09/26 12:44:09;;;;;;;4.37;2.90;;;25.70;60.40;;;;;;5056545;27;94210;-53
2023/09/26 12:46:39;;;;;;;4.63;1.93;;;25.80;60.40;;;;;;5055797;27;92810;-53
2023/09/26 12:49:08;;;;;;;6.07;2.17;;;25.80;60.30;;;;;;5057418;27;92041;-54
2023/09/26 12:51:38;;;;;;;3.27;2.40;;;25.90;60.50;;;;;;5057636;27;91266;-54
2023/09/26 12:54:06;;;;;;;17.03;2.43;;;25.90;60.40;;;;;;5057233;27;93590;-54